Time;durP1;ratioP1;P1;durP2;ratioP2;P2;SDS_P1;SDS_P2;PMS_P1;PMS_P2;Temp;Humidity;BMP_temperature;BMP_pressure;BME280_temperature;BME280_humidity;BME280_pressure;Samples;Min_cycle;Max_cycle;Signal;HPM_P1;HPM_P2
2022/08/02 00:02:10;;;;;;;3.10;1.73;;;20.50;68.70;;;;;;4940397;29;20081;-84
2022/08/02 00:04:36;;;;;;;2.45;1.25;;;20.60;68.30;;;;;;4958923;29;20583;-83
2022/08/02 00:07:03;;;;;;;2.92;1.50;;;20.60;68.60;;;;;;4958645;29;20388;-84
2022/08/02 00:09:29;;;;;;;3.03;1.65;;;20.50;68.90;;;;;;4930518;29;20412;-84
2022/08/02 00:11:54;;;;;;;3.38;1.60;;;20.50;69.00;;;;;;4939814;29;20039;-84
2022/08/02 00:14:20;;;;;;;2.70;1.35;;;20.50;68.30;;;;;;4921660;29;20037;-83
2022/08/02 00:16:46;;;;;;;2.28;1.42;;;20.40;68.40;;;;;;4924468;29;20376;-83
2022/08/02 00:19:11;;;;;;;2.42;1.63;;;20.30;69.10;;;;;;4943312;29;20031;-84
2022/08/02 00:21:39;;;;;;;4.68;1.52;;;20.30;68.90;;;;;;4938943;29;20032;-84
2022/08/02 00:24:05;;;;;;;2.53;1.23;;;20.30;69.20;;;;;;4921897;29;20040;-84
2022/08/02 00:26:31;;;;;;;1.90;1.10;;;20.30;69.30;;;;;;4938530;29;20030;-84
2022/08/02 00:28:56;;;;;;;2.08;1.38;;;20.30;69.40;;;;;;4939741;29;20399;-84
2022/08/02 00:31:22;;;;;;;2.50;1.70;;;20.30;69.50;;;;;;4921302;29;20028;-84
2022/08/02 00:33:48;;;;;;;2.55;1.55;;;20.40;69.20;;;;;;4939085;29;20515;-83
2022/08/02 00:36:14;;;;;;;2.53;1.67;;;20.30;69.30;;;;;;4938122;29;20028;-84
2022/08/02 00:38:43;;;;;;;2.75;1.45;;;20.30;69.30;;;;;;4938663;29;20036;-84
2022/08/02 00:41:15;;;;;;;2.83;1.60;;;20.30;68.80;;;;;;4941147;29;20547;-84
2022/08/02 00:43:41;;;;;;;2.53;1.60;;;20.30;69.70;;;;;;4954111;29;20023;-84
2022/08/02 00:46:08;;;;;;;6.18;1.77;;;20.30;69.50;;;;;;4939533;29;20094;-84
2022/08/02 00:48:33;;;;;;;4.93;1.77;;;20.30;69.40;;;;;;4961363;28;20056;-84
2022/08/02 00:50:59;;;;;;;4.28;1.70;;;20.20;69.20;;;;;;4938405;29;20031;-84
2022/08/02 00:53:25;;;;;;;4.30;1.60;;;20.30;69.00;;;;;;4937130;29;20043;-84
2022/08/02 00:55:50;;;;;;;2.60;1.50;;;20.30;69.40;;;;;;4937257;29;20407;-84
2022/08/02 00:58:16;;;;;;;2.22;1.50;;;20.30;69.10;;;;;;4938397;29;20020;-83
2022/08/02 01:00:42;;;;;;;2.17;1.25;;;20.10;69.60;;;;;;4931581;29;20036;-84
2022/08/02 01:03:07;;;;;;;2.15;1.33;;;20.10;69.30;;;;;;4943190;29;20102;-84
2022/08/02 01:05:33;;;;;;;2.88;1.63;;;20.10;69.10;;;;;;4942076;29;20031;-84
2022/08/02 01:07:59;;;;;;;4.22;2.30;;;20.10;69.20;;;;;;4940763;29;20043;-84
2022/08/02 01:10:24;;;;;;;5.03;1.83;;;20.20;69.40;;;;;;4924963;29;20118;-84
2022/08/02 01:12:52;;;;;;;2.97;1.70;;;20.20;69.50;;;;;;4942389;29;20036;-83
2022/08/02 01:15:19;;;;;;;2.50;1.38;;;20.10;69.30;;;;;;4940915;29;20058;-84
2022/08/02 01:18:19;;;;;;;;;;;;;;;;;;;;;
2022/08/02 01:21:03;;;;;;;;;;;20.10;69.60;;;;;;4943398;29;20563;-85
2022/08/02 01:23:43;;;;;;;3.67;2.08;;;20.00;69.80;;;;;;4941703;29;19911;-84
2022/08/02 01:26:53;;;;;;;2.95;1.92;;;20.00;69.40;;;;;;4977061;28;20027;-84
2022/08/02 01:29:47;;;;;;;3.47;1.70;;;20.00;69.10;;;;;;4921775;29;20048;-84
2022/08/02 01:32:26;;;;;;;4.35;1.83;;;20.00;69.00;;;;;;4913343;29;20385;-84
2022/08/02 01:34:59;;;;;;;2.55;1.70;;;19.90;69.40;;;;;;4941493;29;20024;-84
2022/08/02 01:37:31;;;;;;;4.18;2.30;;;19.90;69.20;;;;;;4940351;29;20040;-84
2022/08/02 01:40:08;;;;;;;4.20;2.03;;;19.90;69.60;;;;;;4940195;29;20023;-85
2022/08/02 01:42:35;;;;;;;3.47;1.92;;;19.90;69.90;;;;;;4941335;29;20059;-84
2022/08/02 01:45:03;;;;;;;3.20;1.83;;;19.90;69.90;;;;;;4941231;29;20392;-85
2022/08/02 01:47:34;;;;;;;4.68;2.08;;;19.90;70.10;;;;;;4941566;29;20023;-84
2022/08/02 01:50:01;;;;;;;4.90;2.08;;;19.80;70.20;;;;;;4939804;29;20039;-84
2022/08/02 01:52:50;;;;;;;4.40;1.77;;;19.80;70.40;;;;;;4941330;29;20105;-84
2022/08/02 01:55:21;;;;;;;5.47;2.00;;;19.60;70.40;;;;;;4941545;29;20086;-85
2022/08/02 01:57:54;;;;;;;3.30;1.75;;;19.70;70.20;;;;;;4940846;29;20287;-84
2022/08/02 02:00:23;;;;;;;4.88;2.17;;;19.70;70.40;;;;;;4948214;29;20491;-84
2022/08/02 02:02:51;;;;;;;4.28;2.10;;;19.70;70.50;;;;;;4946434;29;20459;-84
2022/08/02 02:05:19;;;;;;;4.70;1.98;;;19.70;70.00;;;;;;4941175;29;20508;-84
2022/08/02 02:07:48;;;;;;;3.53;2.08;;;19.60;70.30;;;;;;4940787;29;20028;-84
2022/08/02 02:10:17;;;;;;;4.70;2.25;;;19.60;70.70;;;;;;4941966;29;20114;-84
2022/08/02 02:12:46;;;;;;;5.40;2.20;;;19.50;70.80;;;;;;4940448;29;20083;-84
2022/08/02 02:15:23;;;;;;;4.75;1.88;;;19.50;70.80;;;;;;4941058;29;20051;-84
2022/08/02 02:17:52;;;;;;;3.53;2.22;;;19.50;70.90;;;;;;4951462;29;20034;-84
2022/08/02 02:20:19;;;;;;;4.40;2.03;;;19.50;70.90;;;;;;4939200;29;20060;-84
2022/08/02 02:22:46;;;;;;;4.57;2.28;;;19.50;71.00;;;;;;4941893;29;20038;-84
2022/08/02 02:25:13;;;;;;;4.28;1.67;;;19.50;71.10;;;;;;4940560;29;20058;-84
2022/08/02 02:27:50;;;;;;;3.85;2.08;;;19.60;70.80;;;;;;4933911;29;20051;-84
2022/08/02 02:30:17;;;;;;;3.95;2.10;;;19.50;70.70;;;;;;4940678;29;20012;-84
2022/08/02 02:32:44;;;;;;;3.78;1.98;;;19.50;71.10;;;;;;4924889;29;20119;-84
2022/08/02 02:35:11;;;;;;;3.13;1.80;;;19.50;71.00;;;;;;4940470;29;20519;-84
2022/08/02 02:37:37;;;;;;;4.80;1.65;;;19.40;71.40;;;;;;4958379;29;20046;-85
2022/08/02 02:40:04;;;;;;;3.08;1.90;;;19.30;71.70;;;;;;4947916;29;20032;-84
2022/08/02 02:42:32;;;;;;;4.57;2.63;;;19.30;71.20;;;;;;4940077;29;20035;-84
2022/08/02 02:44:59;;;;;;;3.40;2.25;;;19.30;71.70;;;;;;4941285;29;20054;-85
2022/08/02 02:47:28;;;;;;;3.15;1.70;;;19.30;71.60;;;;;;4940108;29;20035;-84
2022/08/02 02:49:57;;;;;;;5.43;2.30;;;19.30;71.50;;;;;;4941685;29;20016;-84
2022/08/02 02:52:24;;;;;;;3.65;2.10;;;19.40;71.20;;;;;;4940178;29;20399;-85
2022/08/02 02:54:50;;;;;;;4.13;2.00;;;19.40;70.40;;;;;;4940230;29;20369;-85
2022/08/02 02:57:18;;;;;;;4.15;2.40;;;19.40;70.50;;;;;;4941263;29;20031;-84
2022/08/02 02:59:44;;;;;;;3.40;2.42;;;19.30;71.40;;;;;;4941069;29;20515;-84
2022/08/02 03:02:10;;;;;;;3.80;2.38;;;19.30;71.20;;;;;;4960542;29;20035;-84
2022/08/02 03:04:39;;;;;;;5.03;2.20;;;19.30;71.30;;;;;;4952561;29;20055;-84
2022/08/02 03:07:05;;;;;;;4.57;2.30;;;19.20;71.30;;;;;;4940248;29;20543;-84
2022/08/02 03:09:31;;;;;;;3.90;2.05;;;19.20;71.10;;;;;;4922944;29;20399;-84
2022/08/02 03:11:57;;;;;;;4.30;2.28;;;19.20;71.10;;;;;;4939499;29;20044;-84
2022/08/02 03:14:23;;;;;;;5.00;2.50;;;19.20;70.90;;;;;;4941178;29;20062;-84
2022/08/02 03:16:51;;;;;;;6.13;2.38;;;19.20;71.00;;;;;;4941479;29;20090;-84
2022/08/02 03:19:18;;;;;;;4.03;2.10;;;19.10;71.20;;;;;;4951260;29;20031;-84
2022/08/02 03:21:45;;;;;;;3.75;2.00;;;19.00;71.60;;;;;;4939328;29;20484;-84
2022/08/02 03:24:12;;;;;;;3.38;2.10;;;19.00;71.30;;;;;;4938174;29;20050;-85
2022/08/02 03:26:38;;;;;;;5.22;2.50;;;19.00;71.40;;;;;;4939224;29;20054;-85
2022/08/02 03:29:25;;;;;;;3.90;2.00;;;19.00;71.70;;;;;;4939479;29;20034;-84
2022/08/02 03:31:51;;;;;;;3.95;2.25;;;19.00;71.20;;;;;;4940149;29;20036;-85
2022/08/02 03:34:17;;;;;;;3.80;2.22;;;19.00;71.90;;;;;;4930375;29;20028;-85
2022/08/02 03:36:46;;;;;;;4.10;2.58;;;18.90;72.20;;;;;;4951774;29;20101;-85
2022/08/02 03:39:12;;;;;;;3.92;2.30;;;18.80;72.80;;;;;;4941206;29;20030;-84
2022/08/02 03:41:40;;;;;;;4.88;1.92;;;18.80;72.40;;;;;;4942661;29;20031;-85
2022/08/02 03:44:07;;;;;;;4.32;2.28;;;18.90;72.30;;;;;;4941139;29;20024;-85
2022/08/02 03:46:38;;;;;;;7.07;1.95;;;18.90;71.90;;;;;;4959505;29;20081;-84
2022/08/02 03:49:04;;;;;;;4.63;2.60;;;18.80;72.10;;;;;;4959346;29;20087;-85
2022/08/02 03:51:31;;;;;;;5.18;2.35;;;18.80;72.30;;;;;;4944056;29;20583;-85
2022/08/02 03:53:56;;;;;;;3.80;2.17;;;18.80;72.20;;;;;;4940600;29;20079;-84
2022/08/02 03:56:23;;;;;;;4.60;2.42;;;18.80;72.40;;;;;;4936329;29;20039;-85
2022/08/02 03:58:48;;;;;;;3.83;2.40;;;18.80;73.00;;;;;;4940333;29;20035;-85
2022/08/02 04:01:14;;;;;;;2.92;1.90;;;18.80;73.10;;;;;;4940802;29;20031;-84
2022/08/02 04:03:39;;;;;;;4.35;2.25;;;18.80;73.30;;;;;;4949192;29;20058;-84
2022/08/02 04:06:05;;;;;;;4.18;2.72;;;18.70;73.70;;;;;;4938518;29;20063;-84
2022/08/02 04:08:32;;;;;;;6.55;2.38;;;18.70;72.70;;;;;;4938935;29;20040;-85
2022/08/02 04:13:42;;;;;;;4.40;2.22;;;18.60;73.30;;;;;;4938867;29;20042;-85
2022/08/02 04:16:43;;;;;;;4.00;2.10;;;18.60;73.20;;;;;;4940049;29;20043;-84
2022/08/02 04:19:14;;;;;;;4.05;2.03;;;18.50;74.10;;;;;;4938411;29;20043;-84
2022/08/02 04:21:40;;;;;;;3.85;1.85;;;18.60;73.40;;;;;;4939258;29;20419;-85
2022/08/02 04:24:08;;;;;;;3.05;1.88;;;18.60;73.80;;;;;;4937346;29;20562;-85
2022/08/02 04:26:38;;;;;;;5.07;2.17;;;18.60;73.40;;;;;;4937785;29;20036;-84
2022/08/02 04:29:05;;;;;;;3.65;2.05;;;18.60;73.20;;;;;;4937339;29;20095;-84
2022/08/02 04:31:31;;;;;;;2.88;1.65;;;18.60;72.90;;;;;;4937293;29;20083;-85
2022/08/02 04:33:57;;;;;;;3.45;2.15;;;18.50;73.40;;;;;;4939692;29;20033;-84
2022/08/02 04:36:23;;;;;;;3.38;2.10;;;18.50;73.80;;;;;;4949830;28;20078;-85
2022/08/02 04:38:49;;;;;;;3.72;2.00;;;18.50;73.40;;;;;;4942195;29;20027;-84
2022/08/02 04:41:15;;;;;;;4.07;2.08;;;18.50;73.60;;;;;;4936644;29;20031;-85
2022/08/02 04:43:43;;;;;;;3.33;2.00;;;18.40;73.90;;;;;;4938125;29;20472;-84
2022/08/02 04:46:09;;;;;;;3.75;2.05;;;18.40;73.60;;;;;;4938432;29;20038;-85
2022/08/02 04:48:35;;;;;;;3.38;2.15;;;18.50;73.60;;;;;;4938265;29;20028;-87
2022/08/02 04:51:00;;;;;;;3.17;2.08;;;18.40;73.50;;;;;;4937653;29;20106;-80
2022/08/02 04:53:26;;;;;;;7.78;2.13;;;18.40;73.50;;;;;;4937680;29;20032;-82
2022/08/02 04:55:52;;;;;;;5.30;2.50;;;18.40;73.40;;;;;;4938113;29;20032;-84
2022/08/02 04:58:17;;;;;;;4.18;2.20;;;18.40;74.00;;;;;;4943740;29;20479;-84
2022/08/02 05:00:43;;;;;;;4.70;2.38;;;18.30;74.10;;;;;;4949242;29;20056;-83
2022/08/02 05:03:09;;;;;;;5.40;2.85;;;18.40;74.10;;;;;;4957771;29;20027;-82
2022/08/02 05:05:35;;;;;;;3.78;2.15;;;18.50;73.30;;;;;;4957907;29;20236;-84
2022/08/02 05:08:01;;;;;;;3.20;1.90;;;18.40;73.90;;;;;;4950090;29;20099;-81
2022/08/02 05:10:27;;;;;;;5.20;2.10;;;18.40;74.40;;;;;;4938615;29;20134;-82
2022/08/02 05:12:52;;;;;;;4.80;1.98;;;18.40;74.00;;;;;;4938146;29;20071;-82
2022/08/02 05:15:18;;;;;;;2.38;1.58;;;18.50;73.60;;;;;;4944985;29;20089;-79
2022/08/02 05:17:45;;;;;;;2.60;1.30;;;18.60;73.80;;;;;;4948216;29;20910;-81
2022/08/02 05:20:12;;;;;;;3.45;1.75;;;18.60;73.90;;;;;;4938008;29;20032;-78
2022/08/02 05:22:39;;;;;;;3.28;2.00;;;18.50;74.20;;;;;;4920294;29;20028;-78
2022/08/02 05:25:05;;;;;;;2.20;1.63;;;18.50;74.00;;;;;;4936736;29;20027;-78
2022/08/02 05:27:32;;;;;;;3.50;1.90;;;18.50;73.80;;;;;;4936335;29;20039;-78
2022/08/02 05:29:58;;;;;;;5.47;2.05;;;18.50;74.10;;;;;;4937445;29;20444;-78
2022/08/02 05:32:24;;;;;;;3.97;1.80;;;18.60;74.20;;;;;;4936735;29;20020;-78
2022/08/02 05:34:51;;;;;;;2.53;1.65;;;18.60;74.20;;;;;;4937816;29;20043;-79
2022/08/02 05:37:16;;;;;;;3.63;2.10;;;18.60;73.80;;;;;;4938672;29;20031;-79
2022/08/02 05:39:42;;;;;;;3.22;1.85;;;18.70;73.80;;;;;;4939195;29;20042;-78
2022/08/02 05:42:08;;;;;;;5.93;1.98;;;18.60;73.80;;;;;;4956671;29;20440;-80
2022/08/02 05:44:33;;;;;;;3.28;1.85;;;18.60;74.10;;;;;;4956583;29;20035;-80
2022/08/02 05:46:59;;;;;;;8.35;1.90;;;18.60;74.20;;;;;;4951431;29;20035;-87
2022/08/02 05:49:25;;;;;;;4.22;1.95;;;18.70;74.10;;;;;;4941431;29;20036;-87
2022/08/02 05:51:59;;;;;;;2.33;1.35;;;18.60;74.20;;;;;;4941296;29;20109;-86
2022/08/02 05:54:30;;;;;;;3.28;1.40;;;18.60;74.30;;;;;;4941382;29;20040;-79
2022/08/02 05:57:10;;;;;;;3.25;1.80;;;18.70;74.40;;;;;;4932528;29;20035;-81
2022/08/02 05:59:39;;;;;;;4.73;1.60;;;18.70;74.40;;;;;;4916056;29;20062;-80
2022/08/02 06:02:29;;;;;;;3.50;1.67;;;18.70;74.10;;;;;;4946881;29;20035;-80
2022/08/02 06:05:25;;;;;;;2.92;1.70;;;18.70;74.10;;;;;;4951140;29;20042;-79
2022/08/02 06:07:54;;;;;;;5.15;2.30;;;18.80;74.00;;;;;;4936641;29;20071;-82
2022/08/02 06:10:21;;;;;;;3.70;2.00;;;18.80;74.40;;;;;;4953879;29;20051;-78
2022/08/02 06:13:08;;;;;;;2.42;1.30;;;18.80;74.10;;;;;;4958706;29;20119;-84
2022/08/02 06:15:36;;;;;;;4.32;1.80;;;18.80;74.20;;;;;;4952262;29;20028;-80
2022/08/02 06:18:03;;;;;;;3.53;1.83;;;18.90;74.20;;;;;;4951400;29;20034;-80
2022/08/02 06:20:36;;;;;;;5.53;1.90;;;18.90;74.30;;;;;;4957572;29;20086;-79
2022/08/02 06:23:06;;;;;;;2.95;1.73;;;18.90;74.20;;;;;;4923584;29;20035;-79
2022/08/02 06:25:34;;;;;;;3.47;1.98;;;19.00;74.30;;;;;;4935834;29;20086;-79
2022/08/02 06:28:02;;;;;;;3.08;1.98;;;19.00;74.40;;;;;;4952777;29;20093;-79
2022/08/02 06:30:29;;;;;;;5.88;2.03;;;19.00;74.80;;;;;;4927638;29;20047;-79
2022/08/02 06:32:55;;;;;;;2.63;1.67;;;19.00;74.30;;;;;;4925214;29;20038;-79
2022/08/02 06:35:23;;;;;;;5.78;2.13;;;19.10;74.60;;;;;;4946700;29;20027;-79
2022/08/02 06:38:09;;;;;;;3.67;2.00;;;19.10;74.90;;;;;;4940056;29;20035;-79
2022/08/02 06:41:05;;;;;;;2.70;1.58;;;19.20;74.50;;;;;;4958726;29;20490;-79
2022/08/02 06:43:51;;;;;;;3.58;2.08;;;19.20;74.30;;;;;;4947271;29;20455;-80
2022/08/02 06:46:17;;;;;;;2.03;1.35;;;19.30;74.50;;;;;;4941947;28;20395;-79
2022/08/02 06:48:43;;;;;;;3.25;1.98;;;19.30;74.30;;;;;;4947830;29;20027;-79
2022/08/02 06:51:08;;;;;;;3.08;1.77;;;19.30;75.20;;;;;;4952484;29;20024;-79
2022/08/02 06:53:34;;;;;;;4.25;1.80;;;19.30;75.50;;;;;;4946318;29;20546;-79
2022/08/02 06:55:59;;;;;;;3.45;1.65;;;19.40;75.50;;;;;;4955661;29;20874;-80
2022/08/02 06:58:25;;;;;;;4.47;1.73;;;19.40;75.20;;;;;;4956547;28;20028;-80
2022/08/02 07:00:51;;;;;;;1.65;1.20;;;19.50;75.00;;;;;;4956239;29;20108;-80
2022/08/02 07:03:17;;;;;;;2.25;1.38;;;19.50;75.10;;;;;;4952326;29;20062;-80
2022/08/02 07:05:47;;;;;;;2.72;1.45;;;19.50;75.40;;;;;;4939497;29;20030;-79
2022/08/02 07:08:16;;;;;;;3.00;1.73;;;19.50;75.40;;;;;;4953582;29;20062;-80
2022/08/02 07:10:42;;;;;;;3.10;1.40;;;19.60;75.80;;;;;;4937011;29;20051;-79
2022/08/02 07:13:08;;;;;;;2.63;1.33;;;19.70;75.40;;;;;;4932519;29;20035;-79
2022/08/02 07:15:35;;;;;;;1.98;1.17;;;19.80;74.90;;;;;;4939957;29;20067;-80
2022/08/02 07:18:01;;;;;;;1.98;1.25;;;20.00;74.30;;;;;;4929330;29;20048;-80
2022/08/02 07:20:26;;;;;;;2.10;0.98;;;20.60;73.10;;;;;;4944528;29;20035;-80
2022/08/02 07:22:52;;;;;;;1.85;0.73;;;22.30;69.40;;;;;;4927595;29;20069;-80
2022/08/02 07:25:18;;;;;;;3.00;0.88;;;25.30;61.40;;;;;;4937772;29;20126;-81
2022/08/02 07:27:43;;;;;;;1.27;0.70;;;28.10;53.10;;;;;;4921867;29;20164;-81
2022/08/02 07:30:10;;;;;;;2.65;0.90;;;30.40;47.10;;;;;;4938108;29;20035;-81
2022/08/02 07:32:35;;;;;;;1.77;0.60;;;32.50;42.80;;;;;;4938298;29;20042;-81
2022/08/02 07:35:01;;;;;;;1.25;0.60;;;33.50;40.20;;;;;;4928312;29;20032;-81
2022/08/02 07:37:31;;;;;;;1.77;0.68;;;34.80;37.60;;;;;;4946178;29;20032;-81
2022/08/02 07:39:57;;;;;;;1.33;0.65;;;35.50;36.30;;;;;;4938065;29;20020;-81
2022/08/02 07:42:23;;;;;;;1.17;0.57;;;36.30;34.40;;;;;;4937484;29;20046;-81
2022/08/02 07:44:49;;;;;;;1.25;0.60;;;37.20;33.10;;;;;;4945160;29;20508;-82
2022/08/02 07:47:15;;;;;;;0.85;0.52;;;37.80;32.00;;;;;;4949175;29;20067;-82
2022/08/02 07:49:41;;;;;;;1.17;0.65;;;38.40;30.70;;;;;;4937448;29;20034;-82
2022/08/02 07:52:07;;;;;;;1.98;0.50;;;38.70;30.00;;;;;;4957451;29;20046;-82
2022/08/02 07:54:32;;;;;;;1.33;0.57;;;38.50;29.30;;;;;;4952469;29;20054;-81
2022/08/02 07:56:59;;;;;;;1.00;0.60;;;38.90;29.70;;;;;;4927039;29;20574;-81
2022/08/02 07:59:26;;;;;;;1.98;0.55;;;39.30;29.40;;;;;;4920798;29;20035;-81
2022/08/02 08:01:52;;;;;;;0.80;0.60;;;39.60;28.60;;;;;;4934544;29;20110;-82
2022/08/02 08:04:18;;;;;;;2.28;0.60;;;40.00;28.30;;;;;;4954004;29;20035;-82
2022/08/02 08:06:48;;;;;;;3.35;0.57;;;40.30;27.80;;;;;;4938085;29;20023;-82
2022/08/02 08:09:14;;;;;;;0.82;0.47;;;40.40;27.80;;;;;;4921070;29;20568;-82
2022/08/02 08:11:39;;;;;;;0.90;0.57;;;40.80;27.40;;;;;;4938301;29;20172;-82
2022/08/02 08:14:05;;;;;;;0.85;0.40;;;40.90;26.60;;;;;;4937623;29;20035;-82
2022/08/02 08:16:32;;;;;;;1.58;0.40;;;41.10;27.10;;;;;;4938139;29;20466;-81
2022/08/02 08:18:57;;;;;;;0.77;0.38;;;41.30;26.10;;;;;;4935624;29;20040;-82
2022/08/02 08:21:23;;;;;;;0.90;0.40;;;41.60;26.00;;;;;;4929417;29;20027;-82
2022/08/02 08:23:49;;;;;;;2.15;0.57;;;41.10;25.70;;;;;;4956621;29;20102;-82
2022/08/02 08:26:15;;;;;;;1.25;0.52;;;41.20;26.20;;;;;;4954869;28;20571;-79
2022/08/02 08:28:41;;;;;;;1.85;0.60;;;41.30;26.50;;;;;;4956019;28;20070;-79
2022/08/02 08:31:07;;;;;;;2.88;0.60;;;41.30;26.30;;;;;;4947497;29;20028;-79
2022/08/02 08:33:32;;;;;;;0.88;0.50;;;41.60;26.00;;;;;;4937680;29;20144;-79
2022/08/02 08:35:58;;;;;;;1.50;0.60;;;41.50;26.40;;;;;;4937540;29;20424;-79
2022/08/02 08:38:24;;;;;;;1.02;0.43;;;41.60;26.00;;;;;;4938059;29;20042;-79
2022/08/02 08:40:50;;;;;;;1.13;0.47;;;41.70;26.30;;;;;;4937880;29;20527;-79
2022/08/02 08:43:16;;;;;;;2.50;0.65;;;41.10;26.10;;;;;;4923446;29;20036;-80
2022/08/02 08:45:47;;;;;;;1.20;0.40;;;40.80;26.20;;;;;;4937710;29;20032;-79
2022/08/02 08:48:15;;;;;;;1.25;0.63;;;41.00;26.50;;;;;;4949117;29;20083;-80
2022/08/02 08:51:00;;;;;;;;;;;41.20;26.50;;;;;;4938550;29;20468;-80
2022/08/02 08:53:28;;;;;;;1.23;0.40;;;41.50;25.90;;;;;;4925704;29;19914;-80
2022/08/02 08:55:56;;;;;;;1.17;0.52;;;41.40;26.40;;;;;;4942474;29;20032;-81
2022/08/02 08:58:22;;;;;;;;;;;41.40;26.20;;;;;;4938069;29;20112;-81
2022/08/02 09:00:48;;;;;;;0.73;0.50;;;41.30;26.30;;;;;;4933932;29;19950;-81
2022/08/02 09:03:14;;;;;;;1.90;0.50;;;40.90;26.10;;;;;;4938540;29;21103;-81
2022/08/02 09:05:40;;;;;;;0.93;0.45;;;40.40;26.40;;;;;;4948079;29;20031;-81
2022/08/02 09:08:07;;;;;;;2.97;0.80;;;40.10;27.80;;;;;;4925106;29;20032;-81
2022/08/02 09:10:43;;;;;;;1.38;0.63;;;40.60;27.30;;;;;;4943734;29;20043;-81
2022/08/02 09:13:11;;;;;;;1.42;0.60;;;40.80;26.10;;;;;;4956413;29;20050;-81
2022/08/02 09:15:39;;;;;;;1.38;0.63;;;40.70;26.00;;;;;;4939351;29;20035;-81
2022/08/02 09:18:05;;;;;;;1.63;0.50;;;40.80;26.50;;;;;;4952535;29;20110;-81
2022/08/02 09:20:33;;;;;;;1.25;0.60;;;40.60;27.20;;;;;;4955813;29;20692;-81
2022/08/02 09:23:06;;;;;;;1.90;0.65;;;40.70;26.70;;;;;;4925300;29;20575;-81
2022/08/02 09:25:32;;;;;;;1.50;0.70;;;40.70;26.10;;;;;;4927264;29;20500;-81
2022/08/02 09:27:58;;;;;;;2.67;0.75;;;41.00;26.20;;;;;;4940920;29;20052;-81
2022/08/02 09:30:26;;;;;;;2.88;0.75;;;41.30;26.50;;;;;;4925096;29;20028;-81
2022/08/02 09:32:52;;;;;;;1.00;0.60;;;41.30;25.90;;;;;;4943419;29;20051;-81
2022/08/02 09:35:39;;;;;;;1.08;0.52;;;41.70;26.00;;;;;;4923838;29;20035;-81
2022/08/02 09:38:13;;;;;;;2.55;1.00;;;41.80;25.70;;;;;;4922782;29;20087;-81
2022/08/02 09:40:40;;;;;;;0.90;0.52;;;41.80;25.80;;;;;;4939353;29;20043;-81
2022/08/02 09:43:06;;;;;;;1.50;0.63;;;42.20;25.80;;;;;;4923695;29;20044;-81
2022/08/02 09:45:33;;;;;;;2.05;0.68;;;42.60;24.70;;;;;;4940995;29;20042;-80
2022/08/02 09:48:07;;;;;;;1.33;0.60;;;42.80;24.90;;;;;;4941047;29;20047;-80
2022/08/02 09:50:35;;;;;;;2.05;0.60;;;42.90;25.20;;;;;;4939482;29;20032;-81
2022/08/02 09:53:02;;;;;;;2.17;0.70;;;43.00;24.70;;;;;;4940704;29;20063;-81
2022/08/02 09:55:28;;;;;;;2.78;0.75;;;43.20;24.20;;;;;;4942559;29;20046;-81
2022/08/02 09:57:54;;;;;;;1.17;0.60;;;42.80;24.30;;;;;;4941226;29;20027;-80
2022/08/02 10:00:20;;;;;;;2.22;0.80;;;42.80;24.80;;;;;;4939225;29;20035;-81
2022/08/02 10:03:06;;;;;;;1.00;0.70;;;42.80;24.90;;;;;;4932282;29;20039;-80
2022/08/02 10:05:53;;;;;;;1.42;0.60;;;42.80;24.70;;;;;;4923418;29;20031;-81
2022/08/02 10:08:20;;;;;;;2.20;0.98;;;42.90;24.10;;;;;;4958532;29;20043;-82
2022/08/02 10:10:46;;;;;;;1.20;0.60;;;42.40;24.90;;;;;;4959329;29;20518;-82
2022/08/02 10:13:46;;;;;;;2.17;0.70;;;41.80;25.30;;;;;;4942091;29;20391;-86
2022/08/02 10:16:12;;;;;;;1.00;0.70;;;42.10;25.90;;;;;;4936628;29;20051;-81
2022/08/02 10:18:37;;;;;;;1.40;0.73;;;41.70;25.20;;;;;;4952172;29;20432;-82
2022/08/02 10:21:19;;;;;;;2.03;1.17;;;41.40;25.80;;;;;;4944311;29;20118;-80
2022/08/02 10:23:47;;;;;;;1.88;0.60;;;41.20;26.80;;;;;;4946887;29;20098;-82
2022/08/02 10:26:18;;;;;;;1.92;1.02;;;41.00;25.90;;;;;;4952244;29;20035;-83
2022/08/02 10:28:47;;;;;;;1.00;0.70;;;40.70;26.70;;;;;;4954319;29;20031;-82
2022/08/02 10:31:20;;;;;;;1.00;0.65;;;40.50;27.10;;;;;;4939993;29;20115;-84
2022/08/02 10:33:48;;;;;;;1.30;0.60;;;40.30;27.90;;;;;;4921502;29;20036;-83
2022/08/02 10:36:14;;;;;;;;;;;40.10;28.30;;;;;;4923226;29;20024;-82
2022/08/02 10:38:40;;;;;;;1.70;0.60;;;39.80;28.10;;;;;;4939628;29;19921;-83
2022/08/02 10:41:06;;;;;;;1.77;0.60;;;38.90;29.10;;;;;;4940175;29;20091;-80
2022/08/02 10:43:35;;;;;;;1.55;0.70;;;38.10;30.20;;;;;;4939497;29;20087;-80
2022/08/02 10:46:28;;;;;;;1.65;0.82;;;37.10;31.50;;;;;;4939512;29;20106;-80
2022/08/02 10:49:11;;;;;;;1.60;0.80;;;36.50;32.20;;;;;;4929496;29;20031;-80
2022/08/02 10:52:01;;;;;;;1.73;0.75;;;36.00;32.80;;;;;;4939943;29;20023;-80
2022/08/02 10:54:30;;;;;;;2.17;0.80;;;35.40;34.10;;;;;;4939267;29;20027;-79
2022/08/02 10:56:57;;;;;;;4.00;0.70;;;34.90;35.10;;;;;;4941198;29;20048;-79
2022/08/02 10:59:27;;;;;;;1.25;0.52;;;34.80;35.10;;;;;;4947911;29;20403;-82
2022/08/02 11:02:01;;;;;;;1.75;0.80;;;34.70;35.80;;;;;;4936510;29;20040;-78
2022/08/02 11:04:35;;;;;;;1.25;0.73;;;34.40;35.40;;;;;;4922111;29;20028;-78
2022/08/02 11:07:10;;;;;;;2.10;1.25;;;34.10;36.20;;;;;;4922059;29;20031;-78
2022/08/02 11:09:36;;;;;;;2.15;0.95;;;33.90;36.40;;;;;;4939181;29;20079;-78
2022/08/02 11:12:08;;;;;;;1.50;0.80;;;33.50;36.60;;;;;;4938305;29;20047;-78
2022/08/02 11:14:36;;;;;;;1.40;0.82;;;33.40;37.30;;;;;;4938030;29;20042;-79
2022/08/02 11:17:08;;;;;;;1.45;0.82;;;33.50;37.40;;;;;;4942598;29;20031;-78
2022/08/02 11:19:35;;;;;;;3.08;0.90;;;33.50;36.60;;;;;;4954427;29;20615;-78
2022/08/02 11:22:10;;;;;;;2.10;0.68;;;33.40;36.50;;;;;;4947007;29;20066;-78
2022/08/02 11:24:38;;;;;;;1.20;0.73;;;33.20;37.90;;;;;;4958046;29;20027;-78
2022/08/02 11:27:06;;;;;;;2.10;0.70;;;33.20;37.70;;;;;;4950255;29;20432;-77
2022/08/02 11:29:40;;;;;;;2.87;0.87;;;33.00;38.00;;;;;;4949578;29;20131;-78
2022/08/02 11:32:20;;;;;;;3.80;0.70;;;32.90;38.00;;;;;;4938391;29;20039;-78
2022/08/02 11:34:48;;;;;;;1.10;0.60;;;33.00;38.70;;;;;;4935339;29;20031;-78
2022/08/02 11:37:36;;;;;;;1.65;0.80;;;33.00;38.20;;;;;;4948281;29;20030;-78
2022/08/02 11:40:10;;;;;;;1.88;0.70;;;32.90;37.70;;;;;;4947384;29;20024;-78
2022/08/02 11:42:38;;;;;;;1.92;0.90;;;32.80;38.60;;;;;;4945479;29;20035;-78
2022/08/02 11:45:06;;;;;;;2.53;0.98;;;32.50;39.20;;;;;;4947391;29;20059;-78
2022/08/02 11:47:33;;;;;;;3.97;0.85;;;32.70;39.20;;;;;;4956488;29;20020;-78
2022/08/02 11:50:09;;;;;;;2.47;0.70;;;32.80;39.10;;;;;;4943811;29;20038;-78
2022/08/02 11:52:36;;;;;;;0.95;0.50;;;32.70;37.90;;;;;;4943595;29;20439;-78
2022/08/02 11:55:02;;;;;;;1.50;0.60;;;32.50;38.70;;;;;;4943349;29;20042;-78
2022/08/02 11:57:28;;;;;;;2.67;0.90;;;32.40;39.20;;;;;;4929119;29;20099;-78
2022/08/02 11:59:55;;;;;;;0.95;0.55;;;32.50;39.20;;;;;;4943694;29;20877;-79
2022/08/02 12:02:27;;;;;;;1.45;0.65;;;32.70;38.70;;;;;;4942467;29;20023;-78
2022/08/02 12:05:04;;;;;;;1.23;0.60;;;32.50;38.40;;;;;;4935500;29;20027;-78
2022/08/02 12:07:35;;;;;;;2.33;0.80;;;32.70;37.50;;;;;;4956084;29;20058;-78
2022/08/02 12:10:07;;;;;;;1.17;0.63;;;32.60;38.20;;;;;;4938242;29;20130;-79
2022/08/02 12:12:56;;;;;;;2.22;0.85;;;32.50;38.30;;;;;;4938258;29;20824;-78
2022/08/02 12:15:40;;;;;;;1.42;0.68;;;32.50;38.30;;;;;;4943204;29;20055;-78
2022/08/02 12:20:56;;;;;;;;;;;32.60;38.20;;;;;;4957689;29;20046;-78
2022/08/02 12:23:23;;;;;;;1.40;0.65;;;32.50;38.40;;;;;;4939025;29;19923;-78
2022/08/02 12:26:06;;;;;;;2.05;0.40;;;32.60;38.30;;;;;;4940408;29;20440;-78
2022/08/02 12:28:39;;;;;;;1.77;0.63;;;32.60;38.10;;;;;;4952064;29;20657;-78
2022/08/02 12:31:09;;;;;;;0.88;0.43;;;32.70;38.00;;;;;;4946454;29;20461;-78
2022/08/02 12:33:49;;;;;;;0.90;0.50;;;32.70;38.40;;;;;;4921864;29;20035;-79
2022/08/02 12:36:20;;;;;;;2.35;0.57;;;32.60;38.20;;;;;;4934141;29;20094;-78
2022/08/02 12:38:57;;;;;;;1.30;0.52;;;32.70;38.10;;;;;;4948134;29;20047;-79
2022/08/02 12:41:23;;;;;;;1.80;0.80;;;32.50;37.80;;;;;;4942298;29;20027;-78
2022/08/02 12:43:50;;;;;;;1.13;0.50;;;32.40;38.60;;;;;;4939708;29;20122;-78
2022/08/02 12:46:18;;;;;;;1.42;0.70;;;32.60;38.40;;;;;;4953788;29;20068;-79
2022/08/02 12:48:44;;;;;;;3.55;0.70;;;32.60;38.20;;;;;;4953152;29;20023;-78
2022/08/02 12:51:33;;;;;;;1.27;0.60;;;32.70;38.10;;;;;;4935268;29;20090;-79
2022/08/02 12:54:21;;;;;;;1.75;0.70;;;32.80;37.80;;;;;;4932874;29;20019;-79
2022/08/02 12:56:47;;;;;;;0.93;0.50;;;32.80;38.10;;;;;;4919407;29;20031;-79
2022/08/02 12:59:15;;;;;;;2.17;0.73;;;32.80;37.80;;;;;;4936209;29;20028;-79
2022/08/02 13:01:41;;;;;;;3.15;0.85;;;32.80;37.40;;;;;;4953039;29;20459;-79
2022/08/02 13:04:07;;;;;;;2.28;0.60;;;32.80;37.60;;;;;;4939260;29;20119;-79
2022/08/02 13:06:33;;;;;;;2.13;0.57;;;32.80;37.10;;;;;;4938686;29;20159;-78
2022/08/02 13:09:00;;;;;;;2.30;0.50;;;32.80;37.80;;;;;;4956582;29;20026;-79